createdAt,value
2022-10-06T00:18:00.860Z,0.01
2022-10-06T00:20:47.609Z,0
2022-10-06T01:57:52.351Z,0.01
2022-10-06T02:00:38.089Z,0
2022-10-06T02:13:00.541Z,0.01
2022-10-06T02:25:46.346Z,0
2022-10-06T04:46:42.502Z,0.01
2022-10-06T04:54:08.065Z,0.02
2022-10-06T04:56:53.776Z,0.03
2022-10-06T05:01:42.662Z,0.04
2022-10-06T05:03:45.826Z,0.08
2022-10-06T05:06:37.789Z,0.16
2022-10-06T05:09:15.802Z,0.29
2022-10-06T05:11:39.334Z,0.44
2022-10-06T05:13:48.741Z,0.69
2022-10-06T05:16:47.149Z,1.11
2022-10-06T05:19:31.160Z,1.62
2022-10-06T05:22:00.911Z,2.47
2022-10-06T05:24:16.416Z,3.25
2022-10-06T05:26:17.773Z,4.2
2022-10-06T05:29:07.680Z,6.07
2022-10-06T05:31:43.686Z,7.81
2022-10-06T05:34:05.601Z,9.49
2022-10-06T05:36:13.319Z,11.05
2022-10-06T05:39:09.832Z,13.71
2022-10-06T05:41:52.257Z,16.31
2022-10-06T05:44:20.387Z,18.55
2022-10-06T05:46:34.169Z,20.52
2022-10-06T05:48:33.965Z,23.34
2022-10-06T05:51:24.610Z,26.56
2022-10-06T05:53:37.539Z,30.52
2022-10-06T05:55:38.326Z,32.09
2022-10-06T05:58:27.854Z,33.86
2022-10-06T06:01:03.245Z,39.11
2022-10-06T06:03:24.477Z,39.58
2022-10-06T06:05:31.370Z,41.14
2022-10-06T06:08:27.675Z,44.32
2022-10-06T06:11:08.998Z,48.2
2022-10-06T06:13:36.304Z,49.12
2022-10-06T06:15:49.666Z,50.52
2022-10-06T06:17:48.326Z,51.88
2022-10-06T06:20:36.096Z,57.2
2022-10-06T06:23:09.605Z,61.4
2022-10-06T06:25:29.105Z,60.7
2022-10-06T06:27:34.315Z,69.52
2022-10-06T06:30:28.417Z,85.2
2022-10-06T06:33:08.074Z,66.26
2022-10-06T06:35:33.664Z,68.5
2022-10-06T06:37:44.942Z,68.04
2022-10-06T06:40:45.289Z,70.18
2022-10-06T06:43:31.762Z,72.24
2022-10-06T06:46:03.109Z,74.78
2022-10-06T06:48:20.485Z,77.52
2022-10-06T06:50:24.033Z,78.78
2022-10-06T06:53:16.336Z,108.52
2022-10-06T06:55:53.857Z,115.8
2022-10-06T06:58:17.587Z,105.6
2022-10-06T07:00:26.995Z,99.2
2022-10-06T07:03:45.171Z,104.52
2022-10-06T07:06:09.223Z,113.24
2022-10-06T07:08:39.111Z,119.64
2022-10-06T07:10:54.403Z,128.24
2022-10-06T07:12:55.995Z,135.04
2022-10-06T07:15:46.334Z,144.28
2022-10-06T07:18:22.313Z,150.96
2022-10-06T07:20:44.020Z,173.4
2022-10-06T07:22:51.804Z,211
2022-10-06T07:25:48.662Z,243.7
2022-10-06T07:28:30.409Z,249.2
2022-10-06T07:30:58.665Z,259.1
2022-10-06T07:33:12.624Z,271.8
2022-10-06T07:35:12.181Z,274.8
2022-10-06T07:38:00.745Z,294.4
2022-10-06T07:40:35.043Z,301.7
2022-10-06T07:42:55.467Z,330.5
2022-10-06T07:45:01.231Z,327.2
2022-10-06T07:47:55.942Z,308.3
2022-10-06T07:50:36.441Z,309.7
2022-10-06T07:53:02.687Z,327.8
2022-10-06T07:55:14.886Z,319.2
2022-10-06T07:57:12.857Z,323.7
2022-10-06T08:00:03.007Z,331.2
2022-10-06T08:02:33.156Z,340.8
2022-10-06T08:04:50.262Z,315.3
2022-10-06T08:09:47.586Z,309.6
2022-10-06T08:12:26.255Z,346.2
2022-10-06T08:14:51.034Z,312.3
2022-10-06T08:17:01.468Z,228
2022-10-06T08:20:00.810Z,228.4
2022-10-06T08:22:45.753Z,328.8
2022-10-06T08:25:16.743Z,334.5
2022-10-06T08:27:33.118Z,294
2022-10-06T08:29:35.536Z,219.2
2022-10-06T08:32:26.549Z,252.7
2022-10-06T08:35:03.675Z,418
2022-10-06T08:37:26.482Z,403.3
2022-10-06T08:39:34.959Z,354.7
2022-10-06T08:42:32.460Z,413.7
2022-10-06T08:45:15.700Z,413.2
2022-10-06T08:47:44.756Z,409.1
2022-10-06T08:49:59.516Z,425.9
2022-10-06T08:52:00.052Z,249.2
2022-10-06T08:54:49.056Z,436.4
2022-10-06T08:57:24.213Z,451.2
2022-10-06T08:59:45.293Z,446.4
2022-10-06T09:01:52.280Z,159.08
2022-10-06T09:04:47.595Z,482.8
2022-10-06T09:07:29.200Z,487.3
2022-10-06T09:09:56.887Z,496.6
2022-10-06T09:12:09.525Z,519.5
2022-10-06T09:14:08.516Z,377.1
2022-10-06T09:16:56.252Z,541.1
2022-10-06T09:19:32.834Z,553.6
2022-10-06T09:21:48.952Z,584.8
2022-10-06T09:23:53.998Z,598.4
2022-10-06T09:26:47.759Z,608
2022-10-06T09:29:27.312Z,617.2
2022-10-06T09:31:52.935Z,657.6
2022-10-06T09:34:04.170Z,683.5
2022-10-06T09:37:04.091Z,703.3
2022-10-06T09:39:50.062Z,649.6
2022-10-06T09:42:21.899Z,576.6
2022-10-06T09:44:39.332Z,686.7
2022-10-06T09:46:42.396Z,687
2022-10-06T09:49:34.463Z,679
2022-10-06T09:52:12.339Z,607
2022-10-06T09:54:35.988Z,670.7
2022-10-06T09:56:45.515Z,729.2
2022-10-06T09:59:43.762Z,741.1
2022-10-06T10:02:27.851Z,711.6
2022-10-06T10:04:57.784Z,679.3
2022-10-06T10:07:13.473Z,700.1
2022-10-06T10:09:15.652Z,625.2
2022-10-06T10:12:05.276Z,522.8
2022-10-06T10:14:41.367Z,613.1
2022-10-06T10:17:03.260Z,612.3
2022-10-06T10:19:11.123Z,608.8
2022-10-06T10:22:07.620Z,637.2
2022-10-06T10:24:49.923Z,560.3
2022-10-06T10:27:17.944Z,643.2
2022-10-06T10:29:33.215Z,674.8
2022-10-06T10:31:31.849Z,712.3
2022-10-06T10:34:23.762Z,684.4
2022-10-06T10:36:54.607Z,689.9
2022-10-06T10:39:14.373Z,706.5
2022-10-06T10:41:20.251Z,712.3
2022-10-06T10:44:15.095Z,281.4
2022-10-06T10:46:55.744Z,737.2
2022-10-06T10:49:22.018Z,634.4
2022-10-06T10:51:34.338Z,740.4
2022-10-06T10:53:32.341Z,710.4
2022-10-06T10:56:19.094Z,738.5
2022-10-06T10:58:51.518Z,682.8
2022-10-06T11:01:09.980Z,632.9
2022-10-06T11:03:14.105Z,736.3
2022-10-06T11:06:06.947Z,716.1
2022-10-06T11:08:45.788Z,675.2
2022-10-06T11:11:10.391Z,604.4
2022-10-06T11:13:20.729Z,681.9
2022-10-06T11:16:20.049Z,590.4
2022-10-06T11:19:04.947Z,230.4
2022-10-06T11:21:35.687Z,232.6
2022-10-06T11:23:52.170Z,278.8
2022-10-06T11:25:54.594Z,434.8
2022-10-06T11:28:45.681Z,591.8
2022-10-06T11:31:23.105Z,550.2
2022-10-06T11:33:44.967Z,581.7
2022-10-06T11:35:53.604Z,646.5
2022-10-06T11:38:50.925Z,669.7
2022-10-06T11:41:34.237Z,608.8
2022-10-06T11:44:03.285Z,660.8
2022-10-06T11:46:18.173Z,632
2022-10-06T11:48:19.048Z,672.6
2022-10-06T11:51:08.251Z,641.9
2022-10-06T11:53:43.367Z,686.7
2022-10-06T11:56:04.231Z,600.9
2022-10-06T11:58:30.173Z,659.2
2022-10-06T12:01:06.654Z,603.6
2022-10-06T12:03:47.734Z,699.2
2022-10-06T12:06:14.907Z,596.3
2022-10-06T12:08:27.895Z,543.2
2022-10-06T12:10:26.603Z,596.4
2022-10-06T12:13:39.333Z,658.8
2022-10-06T12:18:06.784Z,675.2
2022-10-06T12:20:11.907Z,669.7
2022-10-06T12:23:05.352Z,613.6
2022-10-06T12:25:44.900Z,642.4
2022-10-06T12:28:10.276Z,626.2
2022-10-06T12:30:21.518Z,617.7
2022-10-06T12:33:21.459Z,601.2
2022-10-06T12:36:07.153Z,618.4
2022-10-06T12:38:38.910Z,596
2022-10-06T12:40:56.364Z,622
2022-10-06T12:42:59.557Z,585.4
2022-10-06T12:45:51.684Z,588.3
2022-10-06T12:48:29.498Z,604
2022-10-06T12:50:53.099Z,580.6
2022-10-06T12:53:02.701Z,590.4
2022-10-06T12:56:00.959Z,572
2022-10-06T12:58:44.918Z,580.6
2022-10-06T13:01:14.635Z,578.5
2022-10-06T13:03:30.286Z,569.1
2022-10-06T13:05:31.927Z,562.8
2022-10-06T13:08:21.773Z,580
2022-10-06T13:10:57.871Z,591.8
2022-10-06T13:13:19.710Z,586
2022-10-06T13:15:26.913Z,571.8
2022-10-06T13:18:23.412Z,571.6
2022-10-06T13:21:05.703Z,573.4
2022-10-06T13:23:33.717Z,564.9
2022-10-06T13:25:47.482Z,568.4
2022-10-06T13:27:47.189Z,565.7
2022-10-06T13:30:38.671Z,572.3
2022-10-06T13:33:09.662Z,568.1
2022-10-06T13:35:29.964Z,558.7
2022-10-06T13:37:35.617Z,548.9
2022-10-06T13:40:43.905Z,537.9
2022-10-06T13:43:10.606Z,534.5
2022-10-06T13:45:36.856Z,528.6
2022-10-06T13:47:48.962Z,523.5
2022-10-06T13:49:46.822Z,514.5
2022-10-06T13:52:33.434Z,543.6
2022-10-06T13:55:05.828Z,592.4
2022-10-06T13:57:23.963Z,763.2
2022-10-06T13:59:28.127Z,535.2
2022-10-06T14:02:20.925Z,458.7
2022-10-06T14:04:59.697Z,451.6
2022-10-06T14:07:23.653Z,483.5
2022-10-06T14:09:33.924Z,723.5
2022-10-06T14:12:32.772Z,482.5
2022-10-06T14:15:17.701Z,478.8
2022-10-06T14:17:48.447Z,440.4
2022-10-06T14:20:04.750Z,434.8
2022-10-06T14:22:07.124Z,424.3
2022-10-06T14:24:58.184Z,409.1
2022-10-06T14:27:35.097Z,752
2022-10-06T14:29:57.821Z,379.5
2022-10-06T14:32:06.079Z,654.4
2022-10-06T14:35:08.358Z,570.8
2022-10-06T14:37:46.333Z,492.1
2022-10-06T14:40:15.321Z,393.1
2022-10-06T14:42:30.044Z,506.8
2022-10-06T14:44:30.504Z,917.7
2022-10-06T14:47:19.873Z,395.2
2022-10-06T14:49:54.957Z,401.2
2022-10-06T14:52:15.797Z,389.4
2022-10-06T14:54:22.574Z,340
2022-10-06T14:57:18.050Z,285.6
2022-10-06T14:59:59.264Z,275.4
2022-10-06T15:02:25.898Z,257.3
2022-10-06T15:04:38.734Z,245.2
2022-10-06T15:06:37.421Z,234.5
2022-10-06T15:09:24.765Z,220.5
2022-10-06T15:11:58.100Z,211.6
2022-10-06T15:14:17.220Z,205.2
2022-10-06T15:16:22.090Z,198.7
2022-10-06T15:19:15.888Z,190.8
2022-10-06T15:21:55.482Z,184.3
2022-10-06T15:24:20.783Z,178.5
2022-10-06T15:26:32.078Z,173.8
2022-10-06T15:29:32.057Z,166.8
2022-10-06T15:32:17.759Z,162.52
2022-10-06T15:34:49.249Z,158.04
2022-10-06T15:37:06.643Z,154.48
2022-10-06T15:39:09.825Z,151.04
2022-10-06T15:42:01.981Z,145.2
2022-10-06T15:44:39.575Z,135.52
2022-10-06T15:47:03.226Z,128.76
2022-10-06T15:49:12.483Z,119.68
2022-10-06T15:52:10.388Z,107.36
2022-10-06T15:54:54.406Z,101.48
2022-10-06T15:57:24.133Z,98.96
2022-10-06T15:59:39.607Z,95.76
2022-10-06T16:01:41.191Z,98
2022-10-06T16:04:31.315Z,97
2022-10-06T16:07:07.247Z,91.28
2022-10-06T16:09:29.179Z,85.2
2022-10-06T16:11:36.851Z,79.82
2022-10-06T16:14:33.215Z,70.34
2022-10-06T16:17:15.583Z,68.08
2022-10-06T16:19:43.644Z,65.32
2022-10-06T16:21:59.027Z,60.88
2022-10-06T16:23:57.232Z,56.66
2022-10-06T16:26:45.709Z,50.76
2022-10-06T16:29:00.778Z,45.6
2022-10-06T16:31:01.600Z,41.56
2022-10-06T16:33:51.060Z,36.15
2022-10-06T16:36:26.578Z,31.77
2022-10-06T16:38:47.769Z,27.68
2022-10-06T16:40:54.719Z,24.54
2022-10-06T16:43:50.158Z,19.45
2022-10-06T16:46:31.737Z,16.52
2022-10-06T16:48:59.091Z,13.57
2022-10-06T16:51:12.382Z,11.13
2022-10-06T16:53:14.750Z,9.32
2022-10-06T16:55:59.146Z,6.99
2022-10-06T16:58:32.694Z,5.17
2022-10-06T17:00:52.145Z,4.01
2022-10-06T17:02:57.306Z,2.9
2022-10-06T17:05:51.238Z,1.93
2022-10-06T17:08:31.078Z,1.37
2022-10-06T17:10:56.741Z,0.92
2022-10-06T17:13:08.119Z,0.68
2022-10-06T17:16:08.496Z,0.38
2022-10-06T17:18:54.544Z,0.25
2022-10-06T17:21:44.783Z,0.15
2022-10-06T17:23:43.843Z,0.1
2022-10-06T17:25:47.252Z,0.07
2022-10-06T17:28:39.531Z,0.04
2022-10-06T17:31:17.390Z,0.02
2022-10-06T17:35:50.455Z,0.01
2022-10-06T17:46:19.065Z,0
2022-10-06T17:48:20.761Z,0.01
2022-10-06T17:51:11.224Z,0
2022-10-06T18:08:38.775Z,0.01
2022-10-06T18:13:27.033Z,0
2022-10-06T18:16:01.655Z,0.01
2022-10-06T18:26:03.569Z,0
2022-10-06T18:40:18.038Z,0
2022-10-06T18:58:13.750Z,0.01
2022-10-06T19:00:44.561Z,0
2022-10-06T19:47:38.148Z,0.01
2022-10-06T19:49:37.002Z,0
2022-10-06T21:36:27.923Z,0.01
2022-10-06T21:38:31.786Z,0
